createdAt,value
2018-04-10T00:00:56.074Z,59.24
2018-04-10T00:01:59.478Z,59.26
2018-04-10T00:03:02.852Z,59.30
2018-04-10T00:04:06.282Z,59.33
2018-04-10T00:05:09.789Z,59.36
2018-04-10T00:06:13.159Z,59.39
2018-04-10T00:07:16.513Z,59.43
2018-04-10T00:08:19.975Z,59.47
2018-04-10T00:09:23.325Z,59.52
2018-04-10T00:10:27.073Z,59.55
2018-04-10T00:11:30.412Z,59.57
2018-04-10T00:12:33.732Z,59.62
2018-04-10T00:13:37.088Z,59.67
2018-04-10T00:14:41.821Z,59.70
2018-04-10T00:15:45.104Z,59.76
2018-04-10T00:16:48.474Z,59.80
2018-04-10T00:17:52.050Z,59.83
2018-04-10T00:18:55.562Z,59.84
2018-04-10T00:19:59.827Z,59.87
2018-04-10T00:21:04.069Z,59.90
2018-04-10T00:22:07.441Z,59.92
2018-04-10T00:23:11.638Z,59.97
2018-04-10T00:24:15.023Z,60.03
2018-04-10T00:25:18.393Z,60.04
2018-04-10T00:26:21.847Z,60.07
2018-04-10T00:27:25.195Z,60.10
2018-04-10T00:28:28.531Z,60.13
2018-04-10T00:29:31.846Z,60.16
2018-04-10T00:30:35.387Z,60.19
2018-04-10T00:31:38.834Z,60.23
2018-04-10T00:32:42.215Z,60.27
2018-04-10T00:33:45.570Z,60.29
2018-04-10T00:34:48.979Z,60.33
2018-04-10T00:35:52.359Z,60.36
2018-04-10T00:36:55.776Z,60.39
2018-04-10T00:37:59.462Z,60.42
2018-04-10T00:39:03.347Z,60.45
2018-04-10T00:40:06.736Z,60.47
2018-04-10T00:41:10.097Z,60.49
2018-04-10T00:42:13.458Z,60.49
2018-04-10T00:43:18.588Z,60.51
2018-04-10T00:44:22.054Z,60.53
2018-04-10T00:45:25.470Z,60.55
2018-04-10T00:46:28.871Z,60.58
2018-04-10T00:47:32.290Z,60.57
2018-04-10T00:48:35.837Z,60.58
2018-04-10T00:49:42.381Z,60.60
2018-04-10T00:50:47.294Z,60.64
2018-04-10T00:51:50.753Z,60.68
2018-04-10T00:52:54.104Z,60.69
2018-04-10T00:53:57.427Z,60.70
2018-04-10T00:55:00.767Z,60.71
2018-04-10T00:56:04.661Z,60.74
2018-04-10T00:57:08.033Z,60.78
2018-04-10T00:58:11.358Z,60.78
2018-04-10T00:59:14.710Z,60.80
2018-04-10T01:00:18.102Z,60.79
2018-04-10T01:01:22.040Z,60.78
2018-04-10T01:02:25.656Z,60.75
2018-04-10T01:03:28.964Z,60.74
2018-04-10T01:04:32.331Z,60.72
2018-04-10T01:05:35.673Z,60.70
2018-04-10T01:06:39.739Z,60.68
2018-04-10T01:07:43.075Z,60.68
2018-04-10T01:08:46.478Z,60.65
2018-04-10T01:09:49.827Z,60.63
2018-04-10T01:10:53.228Z,60.62
2018-04-10T01:11:56.643Z,60.61
2018-04-10T01:13:00.002Z,60.60
2018-04-10T01:14:03.390Z,60.60
2018-04-10T01:15:07.094Z,60.59
2018-04-10T01:16:10.482Z,60.57
2018-04-10T01:17:13.887Z,60.56
2018-04-10T01:18:17.276Z,60.55
2018-04-10T01:19:22.146Z,60.55
2018-04-10T01:20:25.538Z,60.54
2018-04-10T01:21:28.955Z,60.53
2018-04-10T01:22:32.375Z,60.52
2018-04-10T01:23:35.693Z,60.51
2018-04-10T01:24:39.108Z,60.51
2018-04-10T01:25:42.450Z,60.51
2018-04-10T01:26:45.792Z,60.48
2018-04-10T01:27:49.147Z,60.49
2018-04-10T01:28:53.233Z,60.49
2018-04-10T01:29:57.379Z,60.53
2018-04-10T01:31:00.704Z,60.56
2018-04-10T01:32:05.120Z,60.59
2018-04-10T01:33:08.427Z,60.65
2018-04-10T01:34:11.852Z,60.68
2018-04-10T01:35:15.205Z,60.74
2018-04-10T01:36:18.550Z,60.79
2018-04-10T01:37:21.882Z,60.86
2018-04-10T01:38:25.311Z,60.92
2018-04-10T01:39:29.329Z,60.95
2018-04-10T01:40:32.701Z,60.98
2018-04-10T01:41:36.118Z,61.02
2018-04-10T01:42:39.594Z,61.05
2018-04-10T01:43:43.174Z,61.08
2018-04-10T01:44:46.569Z,61.09
2018-04-10T01:45:49.888Z,61.09
2018-04-10T01:46:55.812Z,61.14
2018-04-10T01:47:59.789Z,61.17
2018-04-10T01:49:03.945Z,61.18
2018-04-10T01:50:07.315Z,61.18
2018-04-10T01:51:10.741Z,61.18
2018-04-10T01:52:14.778Z,61.19
2018-04-10T01:53:18.268Z,61.21
2018-04-10T01:54:22.315Z,61.22
2018-04-10T01:55:25.694Z,61.23
2018-04-10T01:56:29.119Z,61.25
2018-04-10T01:57:32.471Z,61.25
2018-04-10T01:58:35.816Z,61.27
2018-04-10T01:59:39.128Z,61.29
2018-04-10T02:00:42.483Z,61.31
2018-04-10T02:01:47.379Z,61.33
2018-04-10T02:02:51.566Z,61.35
2018-04-10T02:03:54.875Z,61.38
2018-04-10T02:04:58.307Z,61.40
2018-04-10T02:06:01.710Z,61.41
2018-04-10T02:07:05.089Z,61.44
2018-04-10T02:08:08.439Z,61.45
2018-04-10T02:09:11.750Z,61.47
2018-04-10T02:10:15.138Z,61.49
2018-04-10T02:11:18.518Z,61.50
2018-04-10T02:12:22.538Z,61.53
2018-04-10T02:13:25.888Z,61.56
2018-04-10T02:14:29.207Z,61.55
2018-04-10T02:15:32.546Z,61.56
2018-04-10T02:16:37.609Z,61.58
2018-04-10T02:17:42.908Z,61.61
2018-04-10T02:18:47.021Z,61.64
2018-04-10T02:20:54.314Z,61.67
2018-04-10T02:21:57.747Z,61.70
2018-04-10T02:23:01.562Z,61.73
2018-04-10T02:24:04.947Z,61.75
2018-04-10T02:25:08.412Z,61.76
2018-04-10T02:26:12.054Z,61.78
2018-04-10T02:27:15.427Z,61.79
2018-04-10T02:28:18.774Z,61.80
2018-04-10T02:29:22.111Z,61.82
2018-04-10T02:30:25.900Z,61.83
2018-04-10T02:31:29.299Z,61.87
2018-04-10T02:32:32.645Z,61.89
2018-04-10T02:33:36.010Z,61.90
2018-04-10T02:34:39.384Z,61.93
2018-04-10T02:35:42.728Z,61.95
2018-04-10T02:36:46.884Z,61.98
2018-04-10T02:37:50.243Z,62.01
2018-04-10T02:38:53.540Z,62.03
2018-04-10T02:39:56.843Z,62.05
2018-04-10T02:41:01.583Z,62.06
2018-04-10T02:42:04.995Z,62.09
2018-04-10T02:43:08.979Z,62.10
2018-04-10T02:44:12.388Z,62.13
2018-04-10T02:45:15.793Z,62.13
2018-04-10T02:46:19.151Z,62.15
2018-04-10T02:47:22.556Z,62.16
2018-04-10T02:48:25.933Z,62.17
2018-04-10T02:49:29.512Z,62.16
2018-04-10T02:50:32.891Z,62.18
2018-04-10T02:51:36.245Z,62.19
2018-04-10T02:52:40.427Z,62.21
2018-04-10T02:53:48.834Z,62.21
2018-04-10T02:54:52.913Z,62.23
2018-04-10T02:55:56.304Z,62.24
2018-04-10T02:56:59.687Z,62.24
2018-04-10T02:58:03.072Z,62.24
2018-04-10T02:59:06.620Z,62.25
2018-04-10T03:00:09.944Z,62.25
2018-04-10T03:01:14.582Z,62.26
2018-04-10T03:02:17.964Z,62.28
2018-04-10T03:03:21.308Z,62.28
2018-04-10T03:04:24.653Z,62.29
2018-04-10T03:05:27.990Z,62.31
2018-04-10T03:06:31.306Z,62.33
2018-04-10T03:07:34.644Z,62.33
2018-04-10T03:08:37.977Z,62.34
2018-04-10T03:09:41.398Z,62.33
2018-04-10T03:10:44.719Z,62.36
2018-04-10T03:11:48.322Z,62.38
2018-04-10T03:12:52.506Z,62.40
2018-04-10T03:13:55.868Z,62.42
2018-04-10T03:14:59.290Z,62.44
2018-04-10T03:16:02.648Z,62.45
2018-04-10T03:17:05.987Z,62.47
2018-04-10T03:18:10.128Z,62.49
2018-04-10T03:19:13.573Z,62.52
2018-04-10T03:20:16.990Z,62.55
2018-04-10T03:21:21.115Z,62.57
2018-04-10T03:22:24.567Z,62.60
2018-04-10T03:23:27.859Z,62.63
2018-04-10T03:24:31.235Z,62.65
2018-04-10T03:25:34.641Z,62.67
2018-04-10T03:26:37.982Z,62.69
2018-04-10T03:27:41.450Z,62.70
2018-04-10T03:28:45.026Z,62.72
2018-04-10T03:29:48.382Z,62.74
2018-04-10T03:30:51.721Z,62.78
2018-04-10T03:31:55.150Z,62.81
2018-04-10T03:32:58.503Z,62.83
2018-04-10T03:34:02.813Z,62.86
2018-04-10T03:35:06.275Z,62.90
2018-04-10T03:36:09.635Z,62.92
2018-04-10T03:37:13.787Z,62.94
2018-04-10T03:38:17.168Z,62.96
2018-04-10T03:39:20.573Z,62.97
2018-04-10T03:40:23.950Z,62.99
2018-04-10T03:41:30.271Z,62.99
2018-04-10T03:42:33.632Z,63.03
2018-04-10T03:43:37.271Z,63.04
2018-04-10T03:44:40.660Z,63.05
2018-04-10T03:45:43.950Z,63.05
2018-04-10T03:46:47.301Z,63.06
2018-04-10T03:47:50.758Z,63.06
2018-04-10T03:48:54.034Z,63.07
2018-04-10T03:49:57.414Z,63.07
2018-04-10T03:51:00.728Z,63.07
2018-04-10T03:52:04.163Z,63.07
2018-04-10T03:53:07.550Z,63.07
2018-04-10T03:54:10.862Z,63.07
2018-04-10T03:55:14.177Z,63.09
2018-04-10T03:56:17.505Z,63.08
2018-04-10T03:57:20.919Z,63.08
2018-04-10T03:58:24.752Z,63.08
2018-04-10T03:59:28.123Z,63.09
2018-04-10T04:00:31.459Z,63.11
2018-04-10T04:01:35.590Z,63.11
2018-04-10T04:02:38.947Z,63.11
2018-04-10T04:03:42.266Z,63.11
2018-04-10T04:04:45.786Z,63.13
2018-04-10T04:05:49.109Z,63.13
2018-04-10T04:06:52.468Z,63.14
2018-04-10T04:07:55.902Z,63.14
2018-04-10T04:08:59.275Z,63.13
2018-04-10T04:10:02.697Z,63.14
2018-04-10T04:11:06.037Z,63.14
2018-04-10T04:12:09.640Z,63.13
2018-04-10T04:13:13.023Z,63.13
2018-04-10T04:14:16.407Z,63.12
2018-04-10T04:15:19.740Z,63.12
2018-04-10T04:16:34.752Z,63.12
2018-04-10T04:17:38.073Z,63.18
2018-04-10T04:18:53.227Z,63.18
2018-04-10T04:20:08.414Z,63.22
2018-04-10T04:21:23.669Z,63.27
2018-04-10T04:22:38.950Z,63.29
2018-04-10T04:23:42.472Z,63.32
2018-04-10T04:24:46.094Z,63.27
2018-04-10T04:25:49.486Z,63.25
2018-04-10T04:26:52.863Z,63.23
2018-04-10T04:27:56.269Z,63.23
2018-04-10T04:28:59.587Z,63.22
2018-04-10T04:30:02.999Z,63.21
2018-04-10T04:31:09.167Z,63.23
2018-04-10T04:32:13.281Z,63.24
2018-04-10T04:33:17.516Z,63.25
2018-04-10T04:34:20.988Z,63.24
2018-04-10T04:35:24.627Z,63.24
2018-04-10T04:36:27.979Z,63.28
2018-04-10T04:37:34.335Z,63.30
2018-04-10T04:38:37.687Z,63.35
2018-04-10T04:39:41.473Z,63.34
2018-04-10T04:40:45.692Z,63.36
2018-04-10T04:41:49.269Z,63.35
2018-04-10T04:42:52.681Z,63.37
2018-04-10T04:43:57.826Z,63.37
2018-04-10T04:45:01.826Z,63.37
2018-04-10T04:46:07.947Z,63.35
2018-04-10T04:47:12.444Z,63.37
2018-04-10T04:48:15.877Z,63.37
2018-04-10T04:49:20.177Z,63.35
2018-04-10T04:50:24.553Z,63.35
2018-04-10T04:51:27.934Z,63.35
2018-04-10T04:52:31.324Z,63.35
2018-04-10T04:53:35.025Z,63.35
2018-04-10T04:54:38.510Z,63.34
2018-04-10T04:55:41.825Z,63.35
2018-04-10T04:56:45.309Z,63.37
2018-04-10T04:57:48.672Z,63.38
2018-04-10T04:58:52.031Z,63.37
2018-04-10T04:59:55.539Z,63.37
2018-04-10T05:00:59.798Z,63.36
2018-04-10T05:02:03.285Z,63.37
2018-04-10T05:03:07.150Z,63.37
2018-04-10T05:04:12.105Z,63.37
2018-04-10T05:05:16.288Z,63.36
2018-04-10T05:06:19.753Z,63.38
2018-04-10T05:07:23.585Z,63.36
2018-04-10T05:08:28.047Z,63.35
2018-04-10T05:09:31.454Z,63.34
2018-04-10T05:10:34.783Z,63.33
2018-04-10T05:11:38.691Z,63.31
2018-04-10T05:12:42.139Z,63.30
2018-04-10T05:13:45.502Z,63.31
2018-04-10T05:14:48.850Z,63.32
2018-04-10T05:15:52.231Z,63.32
2018-04-10T05:16:55.608Z,63.29
2018-04-10T05:18:00.669Z,63.31
2018-04-10T05:19:07.039Z,63.32
2018-04-10T05:20:10.394Z,63.32
2018-04-10T05:21:13.710Z,63.30
2018-04-10T05:22:17.086Z,63.26
2018-04-10T05:23:20.514Z,63.23
2018-04-10T05:24:24.122Z,63.19
2018-04-10T05:25:27.524Z,63.17
2018-04-10T05:26:30.908Z,63.16
2018-04-10T05:27:34.399Z,63.14
2018-04-10T05:28:38.183Z,63.13
2018-04-10T05:29:41.485Z,63.12
2018-04-10T05:30:45.494Z,63.10
2018-04-10T05:31:49.598Z,63.08
2018-04-10T05:32:53.833Z,63.06
2018-04-10T05:33:57.542Z,63.05
2018-04-10T05:35:00.919Z,63.04
2018-04-10T05:36:04.355Z,63.02
2018-04-10T05:37:07.696Z,62.98
2018-04-10T05:38:11.239Z,62.98
2018-04-10T05:39:14.614Z,62.92
2018-04-10T05:40:18.409Z,62.85
2018-04-10T05:41:21.830Z,62.80
2018-04-10T05:42:25.425Z,62.75
2018-04-10T05:43:28.770Z,62.69
2018-04-10T05:44:33.048Z,62.61
2018-04-10T05:45:36.892Z,62.53
2018-04-10T05:46:40.260Z,62.46
2018-04-10T05:47:43.586Z,62.39
2018-04-10T05:48:47.188Z,62.33
2018-04-10T05:49:50.821Z,62.27
2018-04-10T05:50:54.217Z,62.22
2018-04-10T05:51:57.796Z,62.17
2018-04-10T05:53:03.481Z,62.12
2018-04-10T05:54:07.719Z,62.11
2018-04-10T05:55:11.072Z,62.08
2018-04-10T05:56:15.306Z,62.06
2018-04-10T05:57:18.631Z,62.04
2018-04-10T05:58:22.832Z,62.04
2018-04-10T05:59:26.183Z,61.97
2018-04-10T06:00:30.421Z,61.91
2018-04-10T06:01:35.810Z,61.90
2018-04-10T06:02:39.761Z,61.88
2018-04-10T06:03:43.285Z,61.81
2018-04-10T06:04:47.376Z,61.76
2018-04-10T06:05:50.896Z,61.73
2018-04-10T06:06:54.411Z,61.70
2018-04-10T06:07:57.722Z,61.65
2018-04-10T06:09:01.382Z,61.59
2018-04-10T06:10:04.958Z,61.61
2018-04-10T06:11:08.391Z,61.62
2018-04-10T06:12:12.275Z,61.59
2018-04-10T06:13:15.959Z,61.57
2018-04-10T06:14:19.345Z,61.52
2018-04-10T06:15:22.755Z,61.54
2018-04-10T06:16:26.235Z,61.54
2018-04-10T06:17:29.836Z,61.54
2018-04-10T06:18:33.676Z,61.53
2018-04-10T06:19:37.258Z,61.53
2018-04-10T06:20:40.655Z,61.53
2018-04-10T06:21:44.062Z,61.48
2018-04-10T06:22:47.533Z,61.46
2018-04-10T06:23:50.865Z,61.37
2018-04-10T06:24:54.178Z,61.31
2018-04-10T06:25:57.544Z,61.24
2018-04-10T06:27:01.035Z,61.24
2018-04-10T06:28:05.199Z,61.21
2018-04-10T06:29:08.531Z,61.18
2018-04-10T06:30:11.962Z,61.13
2018-04-10T06:31:16.816Z,61.11
2018-04-10T06:32:25.034Z,61.10
2018-04-10T06:33:29.359Z,61.08
2018-04-10T06:34:32.724Z,61.05
2018-04-10T06:35:37.775Z,60.99
2018-04-10T06:36:41.442Z,60.94
2018-04-10T06:37:44.760Z,60.87
2018-04-10T06:38:48.446Z,60.82
2018-04-10T06:39:52.504Z,60.75
2018-04-10T06:40:55.895Z,60.64
2018-04-10T06:41:59.244Z,60.56
2018-04-10T06:43:02.666Z,60.45
2018-04-10T06:44:05.980Z,60.36
2018-04-10T06:45:09.278Z,60.28
2018-04-10T06:46:12.821Z,60.20
2018-04-10T06:47:16.200Z,60.15
2018-04-10T06:48:20.224Z,60.03
2018-04-10T06:49:23.816Z,59.93
2018-04-10T06:50:27.386Z,59.86
2018-04-10T06:51:31.081Z,59.76
2018-04-10T06:52:34.597Z,59.73
2018-04-10T06:53:40.600Z,59.67
2018-04-10T06:54:43.912Z,59.63
2018-04-10T06:55:47.484Z,59.58
2018-04-10T06:56:50.987Z,59.54
2018-04-10T06:57:54.337Z,59.41
2018-04-10T06:59:00.108Z,59.36
2018-04-10T07:00:06.535Z,59.37
2018-04-10T07:01:10.309Z,59.33
2018-04-10T07:02:13.640Z,59.24
2018-04-10T07:03:17.009Z,59.15
2018-04-10T07:04:21.060Z,59.06
2018-04-10T07:05:24.405Z,58.99
2018-04-10T07:06:27.940Z,58.93
2018-04-10T07:07:31.264Z,58.88
2018-04-10T07:08:35.560Z,58.84
2018-04-10T07:09:40.124Z,58.82
2018-04-10T07:10:43.479Z,58.77
2018-04-10T07:11:46.826Z,58.69
2018-04-10T07:12:50.196Z,58.53
2018-04-10T07:13:53.946Z,58.38
2018-04-10T07:14:57.309Z,58.21
2018-04-10T07:16:00.638Z,58.02
2018-04-10T07:17:05.079Z,57.87
2018-04-10T07:18:09.485Z,57.74
2018-04-10T07:19:12.939Z,57.59
2018-04-10T07:20:16.389Z,57.45
2018-04-10T07:21:19.723Z,57.32
2018-04-10T07:22:23.189Z,57.17
2018-04-10T07:23:26.610Z,57.03
2018-04-10T07:24:30.063Z,56.90
2018-04-10T07:25:33.474Z,56.80
2018-04-10T07:26:36.862Z,56.71
2018-04-10T07:27:41.891Z,56.63
2018-04-10T07:28:47.798Z,56.56
2018-04-10T07:29:51.206Z,56.50
2018-04-10T07:30:55.040Z,56.31
2018-04-10T07:32:01.442Z,56.21
2018-04-10T07:33:06.162Z,56.13
2018-04-10T07:34:09.691Z,56.05
2018-04-10T07:35:13.330Z,55.99
2018-04-10T07:36:16.690Z,55.94
2018-04-10T07:37:20.056Z,55.83
2018-04-10T07:38:23.405Z,55.77
2018-04-10T07:39:27.510Z,55.73
2018-04-10T07:40:32.104Z,55.69
2018-04-10T07:41:35.467Z,55.65
2018-04-10T07:42:38.794Z,55.58
2018-04-10T07:43:42.150Z,55.53
2018-04-10T07:44:45.470Z,55.45
2018-04-10T07:45:48.948Z,55.37
2018-04-10T07:46:52.338Z,55.31
2018-04-10T07:47:55.731Z,55.26
2018-04-10T07:48:59.790Z,55.24
2018-04-10T07:50:04.337Z,55.19
2018-04-10T07:51:08.450Z,55.19
2018-04-10T07:52:11.903Z,55.12
2018-04-10T07:53:15.245Z,54.99
2018-04-10T07:54:20.397Z,54.87
2018-04-10T07:55:24.791Z,54.77
2018-04-10T07:56:28.265Z,54.70
2018-04-10T07:57:31.647Z,54.66
2018-04-10T07:58:35.245Z,54.61
2018-04-10T07:59:38.561Z,54.59
2018-04-10T08:00:41.948Z,54.56
2018-04-10T08:01:45.265Z,54.55
2018-04-10T08:02:48.631Z,54.50
2018-04-10T08:03:53.306Z,54.49
2018-04-10T08:04:56.642Z,54.48
2018-04-10T08:05:59.989Z,54.42
2018-04-10T08:07:03.931Z,54.37
2018-04-10T08:08:11.502Z,54.36
2018-04-10T08:09:28.504Z,54.39
2018-04-10T08:10:33.635Z,54.43
2018-04-10T08:11:45.146Z,54.33
2018-04-10T08:12:50.211Z,54.24
2018-04-10T08:13:57.984Z,54.16
2018-04-10T08:15:11.055Z,54.09
2018-04-10T08:16:20.697Z,54.06
2018-04-10T08:17:27.092Z,54.04
2018-04-10T08:18:32.134Z,53.99
2018-04-10T08:19:35.512Z,53.92
2018-04-10T08:20:40.500Z,53.79
2018-04-10T08:21:44.862Z,53.67
2018-04-10T08:22:49.595Z,53.43
2018-04-10T08:23:53.297Z,53.21
2018-04-10T08:24:58.018Z,53.10
2018-04-10T08:26:03.423Z,53.00
2018-04-10T08:27:07.376Z,52.81
2018-04-10T08:28:17.263Z,52.63
2018-04-10T08:29:22.357Z,52.55
2018-04-10T08:30:26.625Z,52.44
2018-04-10T08:31:30.694Z,52.30
2018-04-10T08:32:34.374Z,52.17
2018-04-10T08:33:38.398Z,52.03
2018-04-10T08:34:43.041Z,51.90
2018-04-10T08:35:49.058Z,51.71
2018-04-10T08:36:53.652Z,51.58
2018-04-10T08:37:58.094Z,51.52
2018-04-10T08:39:06.689Z,51.38
2018-04-10T08:40:10.050Z,51.21
2018-04-10T08:41:21.690Z,51.13
2018-04-10T08:42:28.004Z,50.92
2018-04-10T08:43:31.825Z,50.81
2018-04-10T08:44:35.152Z,50.68
2018-04-10T08:45:38.498Z,50.55
2018-04-10T08:46:46.064Z,50.47
2018-04-10T08:47:52.658Z,50.47
2018-04-10T08:48:59.705Z,50.48
2018-04-10T08:50:08.311Z,50.44
2018-04-10T08:51:11.695Z,50.32
2018-04-10T08:52:15.291Z,50.12
2018-04-10T08:53:18.610Z,49.89
2018-04-10T08:54:21.942Z,49.77
2018-04-10T08:55:27.822Z,49.71
2018-04-10T08:56:31.927Z,49.61
2018-04-10T08:57:35.368Z,49.46
2018-04-10T08:58:40.703Z,49.28
2018-04-10T08:59:44.545Z,49.15
2018-04-10T09:00:49.764Z,49.06
2018-04-10T09:01:54.030Z,48.98
2018-04-10T09:02:57.414Z,48.94
2018-04-10T09:04:05.015Z,48.87
2018-04-10T09:05:09.123Z,48.83
2018-04-10T09:06:13.247Z,48.82
2018-04-10T09:07:17.432Z,48.74
2018-04-10T09:08:25.058Z,48.77
2018-04-10T09:09:28.390Z,48.85
2018-04-10T09:10:31.799Z,48.93
2018-04-10T09:11:37.653Z,48.95
2018-04-10T09:12:42.821Z,48.83
2018-04-10T09:13:46.147Z,48.81
2018-04-10T09:14:49.556Z,48.77
2018-04-10T09:15:53.688Z,48.68
2018-04-10T09:16:58.020Z,48.55
2018-04-10T09:18:01.335Z,48.45
2018-04-10T09:19:05.628Z,48.37
2018-04-10T09:20:09.184Z,48.34
2018-04-10T09:21:15.184Z,48.28
2018-04-10T09:22:18.615Z,48.07
2018-04-10T09:23:21.945Z,47.91
2018-04-10T09:24:26.019Z,47.64
2018-04-10T09:25:29.410Z,47.46
2018-04-10T09:26:32.792Z,47.36
2018-04-10T09:27:36.129Z,47.28
2018-04-10T09:28:39.443Z,47.30
2018-04-10T09:29:42.827Z,47.22
2018-04-10T09:30:46.163Z,47.09
2018-04-10T09:31:49.614Z,46.89
2018-04-10T09:32:52.911Z,46.80
2018-04-10T09:33:56.610Z,46.76
2018-04-10T09:35:00.095Z,46.67
2018-04-10T09:36:04.821Z,46.58
2018-04-10T09:37:08.140Z,46.53
2018-04-10T09:38:11.442Z,46.47
2018-04-10T09:39:14.786Z,46.37
2018-04-10T09:40:18.153Z,46.30
2018-04-10T09:41:21.504Z,46.29
2018-04-10T09:42:24.902Z,46.31
2018-04-10T09:43:28.222Z,46.35
2018-04-10T09:44:31.601Z,46.40
2018-04-10T09:45:34.981Z,46.47
2018-04-10T09:46:38.324Z,46.40
2018-04-10T09:47:41.653Z,46.43
2018-04-10T09:48:45.005Z,46.46
2018-04-10T09:49:48.314Z,46.51
2018-04-10T09:50:51.695Z,46.36
2018-04-10T09:51:55.029Z,46.29
2018-04-10T09:52:58.462Z,46.28
2018-04-10T09:54:01.767Z,46.23
2018-04-10T09:55:05.410Z,46.26
2018-04-10T09:56:08.781Z,46.28
2018-04-10T09:57:12.176Z,46.29
2018-04-10T09:58:15.498Z,46.29
2018-04-10T09:59:18.851Z,46.29
2018-04-10T10:00:28.564Z,46.26
2018-04-10T10:01:31.878Z,46.23
2018-04-10T10:02:35.680Z,46.24
2018-04-10T10:03:38.999Z,46.19
2018-04-10T10:04:43.221Z,46.17
2018-04-10T10:05:46.618Z,46.04
2018-04-10T10:06:51.423Z,46.03
2018-04-10T10:07:54.810Z,45.99
2018-04-10T10:08:58.151Z,45.93
2018-04-10T10:10:01.535Z,45.85
2018-04-10T10:11:04.935Z,45.77
2018-04-10T10:12:08.309Z,45.61
2018-04-10T10:13:11.654Z,45.47
2018-04-10T10:14:15.027Z,45.37
2018-04-10T10:15:18.434Z,45.36
2018-04-10T10:16:21.811Z,45.33
2018-04-10T10:17:25.170Z,45.29
2018-04-10T10:18:28.507Z,45.17
2018-04-10T10:19:31.908Z,45.14
2018-04-10T10:20:35.285Z,45.17
2018-04-10T10:21:38.606Z,45.18
2018-04-10T10:22:41.964Z,45.19
2018-04-10T10:23:46.065Z,45.19
2018-04-10T10:24:49.396Z,45.17
2018-04-10T10:25:52.778Z,44.97
2018-04-10T10:26:56.121Z,44.68
2018-04-10T10:27:59.511Z,44.45
2018-04-10T10:29:03.288Z,44.26
2018-04-10T10:30:06.641Z,44.18
2018-04-10T10:31:10.066Z,44.05
2018-04-10T10:32:13.379Z,43.95
2018-04-10T10:33:16.760Z,43.91
2018-04-10T10:34:20.087Z,43.83
2018-04-10T10:35:23.427Z,43.79
2018-04-10T10:36:26.772Z,43.72
2018-04-10T10:37:30.136Z,43.71
2018-04-10T10:38:33.490Z,43.76
2018-04-10T10:39:36.832Z,43.88
2018-04-10T10:40:40.190Z,43.95
2018-04-10T10:41:43.550Z,43.93
2018-04-10T10:42:46.928Z,43.90
2018-04-10T10:43:50.294Z,43.98
2018-04-10T10:44:53.644Z,43.97
2018-04-10T10:45:57.000Z,43.92
2018-04-10T10:47:00.313Z,43.94
2018-04-10T10:48:03.777Z,43.87
2018-04-10T10:49:07.342Z,43.74
2018-04-10T10:50:10.999Z,43.67
2018-04-10T10:51:15.077Z,43.56
2018-04-10T10:52:18.415Z,43.45
2018-04-10T10:53:21.878Z,43.22
2018-04-10T10:54:25.226Z,43.01
2018-04-10T10:55:28.602Z,42.84
2018-04-10T10:56:31.916Z,42.60
2018-04-10T10:57:35.278Z,42.25
2018-04-10T10:58:38.578Z,42.04
2018-04-10T10:59:41.943Z,41.92
2018-04-10T11:00:45.320Z,41.98
2018-04-10T11:01:48.678Z,42.11
2018-04-10T11:02:52.014Z,42.13
2018-04-10T11:03:55.365Z,42.24
2018-04-10T11:04:58.726Z,42.27
2018-04-10T11:06:02.226Z,42.24
2018-04-10T11:07:05.561Z,42.18
2018-04-10T11:08:08.879Z,42.17
2018-04-10T11:09:12.267Z,42.03
2018-04-10T11:10:15.678Z,41.87
2018-04-10T11:11:19.055Z,41.73
2018-04-10T11:12:22.423Z,41.65
2018-04-10T11:13:25.851Z,41.54
2018-04-10T11:14:29.215Z,41.48
2018-04-10T11:15:32.607Z,41.35
2018-04-10T11:16:35.922Z,41.34
2018-04-10T11:17:39.291Z,41.20
2018-04-10T11:18:42.635Z,41.13
2018-04-10T11:19:46.213Z,41.08
2018-04-10T11:20:49.712Z,41.03
2018-04-10T11:21:53.070Z,40.89
2018-04-10T11:22:56.502Z,40.82
2018-04-10T11:23:59.854Z,40.78
2018-04-10T11:25:03.202Z,40.75
2018-04-10T11:26:06.814Z,40.84
2018-04-10T11:27:10.170Z,40.92
2018-04-10T11:28:13.514Z,41.07
2018-04-10T11:29:16.875Z,41.18
2018-04-10T11:30:20.262Z,41.16
2018-04-10T11:31:23.612Z,41.12
2018-04-10T11:32:27.025Z,41.12
2018-04-10T11:33:30.396Z,41.18
2018-04-10T11:34:33.943Z,41.09
2018-04-10T11:35:37.275Z,41.04
2018-04-10T11:36:40.728Z,41.03
2018-04-10T11:37:44.031Z,41.11
2018-04-10T11:38:47.354Z,41.08
2018-04-10T11:39:50.709Z,40.96
2018-04-10T11:40:54.036Z,40.81
2018-04-10T11:41:57.379Z,40.79
2018-04-10T11:43:00.710Z,40.74
2018-04-10T11:44:04.111Z,40.71
2018-04-10T11:45:07.474Z,40.65
2018-04-10T11:46:10.815Z,40.66
2018-04-10T11:47:14.195Z,40.60
2018-04-10T11:48:17.517Z,40.55
2018-04-10T11:49:20.857Z,40.57
2018-04-10T11:50:24.193Z,40.51
2018-04-10T11:51:27.516Z,40.49
2018-04-10T11:52:30.925Z,40.45
2018-04-10T11:53:34.299Z,40.35
2018-04-10T11:54:37.652Z,40.30
2018-04-10T11:55:40.982Z,40.21
2018-04-10T11:56:44.323Z,40.12
2018-04-10T11:57:47.692Z,40.07
2018-04-10T11:58:51.029Z,40.01
2018-04-10T11:59:54.327Z,40.09
2018-04-10T12:00:57.667Z,40.03
2018-04-10T12:02:01.045Z,39.95
2018-04-10T12:03:04.379Z,39.92
2018-04-10T12:04:07.738Z,39.86
2018-04-10T12:05:11.102Z,39.73
2018-04-10T12:06:14.421Z,39.76
2018-04-10T12:07:17.760Z,39.69
2018-04-10T12:08:21.153Z,39.65
2018-04-10T12:09:24.496Z,39.60
2018-04-10T12:10:27.938Z,39.54
2018-04-10T12:11:31.274Z,39.53
2018-04-10T12:12:34.742Z,39.51
2018-04-10T12:13:38.076Z,39.51
2018-04-10T12:14:41.468Z,39.53
2018-04-10T12:15:45.186Z,39.51
2018-04-10T12:16:48.510Z,39.54
2018-04-10T12:17:51.893Z,39.51
2018-04-10T12:18:55.350Z,39.47
2018-04-10T12:19:58.688Z,39.38
2018-04-10T12:21:02.062Z,39.30
2018-04-10T12:22:05.400Z,39.27
2018-04-10T12:23:08.738Z,39.25
2018-04-10T12:24:12.210Z,39.20
2018-04-10T12:25:15.545Z,39.20
2018-04-10T12:26:18.950Z,39.24
2018-04-10T12:27:22.379Z,39.29
2018-04-10T12:28:25.720Z,39.36
2018-04-10T12:29:29.218Z,39.29
2018-04-10T12:30:32.720Z,39.33
2018-04-10T12:31:36.060Z,39.37
2018-04-10T12:32:39.906Z,39.28
2018-04-10T12:33:43.294Z,39.24
2018-04-10T12:34:46.644Z,39.28
2018-04-10T12:35:49.992Z,39.31
2018-04-10T12:36:53.331Z,39.24
2018-04-10T12:37:56.691Z,39.23
2018-04-10T12:39:00.024Z,39.21
2018-04-10T12:40:03.382Z,39.24
2018-04-10T12:41:06.731Z,39.28
2018-04-10T12:42:10.145Z,39.35
2018-04-10T12:43:13.464Z,39.43
2018-04-10T12:44:16.802Z,39.56
2018-04-10T12:45:20.210Z,39.54
2018-04-10T12:46:23.575Z,39.50
2018-04-10T12:47:26.936Z,39.39
2018-04-10T12:48:30.253Z,39.31
2018-04-10T12:49:33.606Z,39.26
2018-04-10T12:50:36.968Z,39.18
2018-04-10T12:51:40.298Z,38.99
2018-04-10T12:52:43.651Z,38.79
2018-04-10T12:53:46.955Z,38.70
2018-04-10T12:54:50.340Z,38.67
2018-04-10T12:55:53.993Z,38.56
2018-04-10T12:56:57.314Z,38.55
2018-04-10T12:58:00.639Z,38.46
2018-04-10T12:59:04.071Z,38.48
2018-04-10T13:00:07.415Z,38.38
2018-04-10T13:01:10.770Z,38.19
2018-04-10T13:02:14.171Z,37.80
2018-04-10T13:03:18.539Z,37.59
2018-04-10T13:04:21.961Z,37.52
2018-04-10T13:05:25.308Z,37.50
2018-04-10T13:06:28.663Z,37.47
2018-04-10T13:07:32.047Z,37.49
2018-04-10T13:08:37.052Z,37.57
2018-04-10T13:09:40.378Z,37.69
2018-04-10T13:10:43.963Z,37.74
2018-04-10T13:11:47.827Z,37.71
2018-04-10T13:12:51.266Z,37.68
2018-04-10T13:13:54.674Z,37.68
2018-04-10T13:14:58.036Z,37.69
2018-04-10T13:16:01.492Z,37.71
2018-04-10T13:17:04.851Z,37.73
2018-04-10T13:18:08.229Z,37.64
2018-04-10T13:19:13.443Z,37.64
2018-04-10T13:20:16.764Z,37.64
2018-04-10T13:21:20.141Z,37.62
2018-04-10T13:22:23.510Z,37.64
2018-04-10T13:23:31.411Z,37.63
2018-04-10T13:24:34.789Z,37.64
2018-04-10T13:25:39.533Z,37.68
2018-04-10T13:26:42.914Z,37.64
2018-04-10T13:27:46.237Z,37.64
2018-04-10T13:28:50.494Z,37.67
2018-04-10T13:29:53.843Z,37.71
2018-04-10T13:30:57.540Z,37.62
2018-04-10T13:32:01.253Z,37.53
2018-04-10T13:33:04.594Z,37.59
2018-04-10T13:34:07.951Z,37.59
2018-04-10T13:35:11.322Z,37.53
2018-04-10T13:36:15.177Z,37.47
2018-04-10T13:37:18.516Z,37.49
2018-04-10T13:38:22.112Z,37.48
2018-04-10T13:39:26.367Z,37.46
2018-04-10T13:40:29.700Z,37.51
2018-04-10T13:41:35.284Z,37.52
2018-04-10T13:42:40.349Z,37.62
2018-04-10T13:43:43.715Z,37.64